Time;durP1;ratioP1;P1;durP2;ratioP2;P2;SDS_P1;SDS_P2;PMS_P1;PMS_P2;Temp;Humidity;BMP_temperature;BMP_pressure;BME280_temperature;BME280_humidity;BME280_pressure;Samples;Min_cycle;Max_cycle;Signal;HPM_P1;HPM_P2
2023/01/19 00:00:29;;;;;;;0.10;0.10;;;4.00;99.90;;;;;;5031512;28;20037;-67
2023/01/19 00:02:55;;;;;;;0.10;0.10;;;4.00;99.90;;;;;;5031764;28;20111;-67
2023/01/19 00:05:20;;;;;;;0.10;0.10;;;4.00;99.90;;;;;;5027841;28;20049;-67
2023/01/19 00:07:46;;;;;;;0.10;0.10;;;4.10;99.90;;;;;;5023382;28;20037;-67
2023/01/19 00:10:11;;;;;;;0.10;0.10;;;4.10;99.90;;;;;;5032232;28;20045;-67
2023/01/19 00:12:37;;;;;;;0.10;0.10;;;4.10;99.90;;;;;;5030177;28;20091;-67
2023/01/19 00:15:03;;;;;;;0.10;0.10;;;4.00;99.90;;;;;;5030937;28;20048;-67
2023/01/19 00:17:29;;;;;;;0.10;0.10;;;4.00;99.90;;;;;;5030810;28;20045;-67
2023/01/19 00:19:54;;;;;;;0.10;0.10;;;4.00;99.90;;;;;;5030439;28;20037;-67
2023/01/19 00:22:20;;;;;;;0.10;0.10;;;4.10;99.90;;;;;;5029676;28;20095;-67
2023/01/19 00:24:45;;;;;;;0.10;0.10;;;4.00;99.90;;;;;;5031021;28;20489;-67
2023/01/19 00:27:11;;;;;;;0.10;0.10;;;4.00;99.90;;;;;;5029808;28;20084;-67
2023/01/19 00:29:37;;;;;;;0.10;0.10;;;4.00;99.90;;;;;;5012606;28;20055;-67
2023/01/19 00:32:03;;;;;;;0.10;0.10;;;4.00;99.90;;;;;;5030884;28;20045;-67
2023/01/19 00:34:35;;;;;;;0.10;0.10;;;4.00;99.90;;;;;;5028055;28;20048;-67
2023/01/19 00:37:02;;;;;;;0.10;0.10;;;4.10;99.90;;;;;;5030884;28;20128;-67
2023/01/19 00:39:27;;;;;;;1.67;1.58;;;4.10;99.90;;;;;;5031569;28;20053;-67
2023/01/19 00:44:37;;;;;;;0.10;0.10;;;4.20;99.90;;;;;;5031137;28;20137;-67
2023/01/19 00:47:04;;;;;;;0.10;0.10;;;4.20;99.90;;;;;;5027523;28;20120;-67
2023/01/19 00:49:30;;;;;;;0.10;0.10;;;4.20;99.90;;;;;;5029127;28;20065;-67
2023/01/19 00:51:56;;;;;;;0.10;0.10;;;4.20;99.90;;;;;;5029417;28;20048;-67
2023/01/19 00:54:21;;;;;;;2.17;1.50;;;4.20;99.90;;;;;;5029204;28;20059;-67
2023/01/19 00:56:48;;;;;;;0.10;0.10;;;4.20;99.90;;;;;;5029728;28;20132;-67
2023/01/19 00:59:14;;;;;;;0.10;0.10;;;4.20;99.90;;;;;;5008363;28;20465;-67
2023/01/19 01:01:39;;;;;;;0.10;0.10;;;4.20;99.90;;;;;;5028289;28;20045;-67
2023/01/19 01:04:05;;;;;;;0.13;0.13;;;4.20;99.90;;;;;;5030811;28;20037;-67
2023/01/19 01:06:30;;;;;;;0.10;0.10;;;4.30;99.90;;;;;;5030129;28;20095;-67
2023/01/19 01:08:56;;;;;;;0.13;0.13;;;4.30;99.90;;;;;;5029509;28;20041;-67
2023/01/19 01:11:22;;;;;;;0.30;0.30;;;4.30;99.90;;;;;;5011506;28;20049;-66
2023/01/19 01:13:47;;;;;;;0.10;0.10;;;4.30;99.90;;;;;;5011811;28;20073;-67
2023/01/19 01:16:15;;;;;;;0.10;0.10;;;4.30;99.90;;;;;;5028336;28;20455;-67
2023/01/19 01:18:41;;;;;;;0.10;0.10;;;4.30;99.90;;;;;;5028763;28;20493;-67
2023/01/19 01:21:07;;;;;;;0.10;0.10;;;4.30;99.90;;;;;;5030230;28;20391;-67
2023/01/19 01:23:33;;;;;;;0.15;0.15;;;4.30;99.90;;;;;;5011511;28;20140;-67
2023/01/19 01:25:59;;;;;;;0.10;0.10;;;4.30;99.90;;;;;;5028883;28;20052;-67
2023/01/19 01:28:25;;;;;;;0.10;0.10;;;4.30;99.90;;;;;;5011208;28;20125;-67
2023/01/19 01:30:55;;;;;;;0.13;0.13;;;4.30;99.90;;;;;;5028927;28;20034;-67
2023/01/19 01:33:21;;;;;;;0.10;0.10;;;4.30;99.90;;;;;;5030651;28;20045;-66
2023/01/19 01:35:48;;;;;;;0.10;0.10;;;4.30;99.90;;;;;;5030397;28;20435;-67
2023/01/19 01:38:14;;;;;;;0.10;0.10;;;4.30;99.90;;;;;;5029115;28;20057;-67
2023/01/19 01:40:40;;;;;;;0.10;0.10;;;4.30;99.90;;;;;;5029361;28;20033;-67
2023/01/19 01:43:11;;;;;;;0.10;0.10;;;4.30;99.90;;;;;;5029296;28;20091;-67
2023/01/19 01:45:38;;;;;;;0.10;0.10;;;4.40;99.90;;;;;;5010846;28;20450;-67
2023/01/19 01:48:13;;;;;;;0.10;0.10;;;4.40;99.90;;;;;;5030330;28;20041;-67
2023/01/19 01:53:33;;;;;;;;;;;4.40;99.90;;;;;;5020811;28;20065;-67
2023/01/19 01:55:59;;;;;;;0.10;0.10;;;4.40;99.90;;;;;;5024236;28;19975;-67
2023/01/19 01:58:26;;;;;;;0.10;0.10;;;4.40;99.90;;;;;;5011749;28;20048;-67
2023/01/19 02:03:35;;;;;;;0.10;0.10;;;4.40;99.90;;;;;;5029322;28;20046;-67
2023/01/19 02:06:05;;;;;;;0.10;0.10;;;4.40;99.90;;;;;;5029140;28;20041;-67
2023/01/19 02:14:15;;;;;;;0.10;0.10;;;4.40;99.90;;;;;;5030049;28;20057;-67
2023/01/19 02:16:41;;;;;;;0.10;0.10;;;4.30;99.90;;;;;;5028847;28;20477;-67
2023/01/19 02:19:11;;;;;;;0.10;0.10;;;4.30;99.90;;;;;;5029344;28;20477;-67
2023/01/19 02:22:00;;;;;;;0.10;0.10;;;4.30;99.90;;;;;;5031879;28;20052;-67
2023/01/19 02:24:27;;;;;;;0.10;0.10;;;4.30;99.90;;;;;;5033102;28;20042;-67
2023/01/19 02:26:53;;;;;;;0.10;0.10;;;4.30;99.90;;;;;;5032215;28;20238;-67
2023/01/19 02:29:22;;;;;;;0.10;0.10;;;4.30;99.90;;;;;;5016013;28;20060;-67
2023/01/19 02:31:47;;;;;;;0.10;0.10;;;4.30;99.90;;;;;;5015517;28;20582;-67
2023/01/19 02:34:19;;;;;;;0.10;0.10;;;4.30;99.90;;;;;;5032440;28;20065;-67
2023/01/19 02:36:57;;;;;;;0.10;0.10;;;4.30;99.90;;;;;;5031046;28;20060;-67
2023/01/19 02:39:35;;;;;;;0.30;0.30;;;4.30;99.90;;;;;;5015677;28;20061;-67
2023/01/19 02:42:33;;;;;;;0.10;0.10;;;4.30;99.90;;;;;;5015006;28;20493;-67
2023/01/19 02:45:05;;;;;;;0.10;0.10;;;4.40;99.90;;;;;;5028678;28;20038;-67
2023/01/19 02:47:37;;;;;;;0.10;0.10;;;4.40;99.90;;;;;;5026021;28;20045;-67
2023/01/19 02:50:03;;;;;;;0.10;0.10;;;4.50;99.90;;;;;;5015305;28;20061;-67
2023/01/19 02:52:29;;;;;;;0.10;0.10;;;4.50;99.90;;;;;;5033363;28;20044;-67
2023/01/19 02:55:14;;;;;;;0.40;0.40;;;4.50;99.90;;;;;;5031085;28;20068;-67
2023/01/19 02:58:00;;;;;;;0.10;0.10;;;4.50;99.90;;;;;;5012893;28;20053;-67
2023/01/19 03:01:07;;;;;;;0.10;0.10;;;4.50;99.90;;;;;;5033346;28;20125;-67
2023/01/19 03:04:10;;;;;;;0.10;0.10;;;4.50;99.90;;;;;;5024088;28;20451;-67
2023/01/19 03:06:53;;;;;;;0.10;0.10;;;4.50;99.90;;;;;;5017359;28;20123;-67
2023/01/19 03:09:29;;;;;;;0.10;0.10;;;4.40;99.90;;;;;;5031046;28;20492;-67
2023/01/19 03:12:17;;;;;;;0.10;0.10;;;4.40;99.90;;;;;;5004886;28;20053;-67
2023/01/19 03:14:46;;;;;;;0.20;0.20;;;4.50;99.90;;;;;;5011232;28;20135;-67
2023/01/19 03:17:16;;;;;;;0.10;0.10;;;4.50;99.90;;;;;;5031510;28;20049;-67
2023/01/19 03:19:44;;;;;;;0.10;0.10;;;4.50;99.90;;;;;;5031634;28;20401;-67
2023/01/19 03:22:14;;;;;;;0.10;0.10;;;4.50;99.90;;;;;;5031460;28;20125;-67
2023/01/19 03:24:44;;;;;;;0.10;0.10;;;4.50;99.90;;;;;;5029427;28;20069;-67
2023/01/19 03:27:15;;;;;;;0.10;0.10;;;4.50;99.90;;;;;;5031064;28;20049;-67
2023/01/19 03:29:47;;;;;;;0.10;0.10;;;4.50;99.90;;;;;;5030168;28;20060;-67
2023/01/19 03:32:15;;;;;;;0.10;0.10;;;4.50;99.90;;;;;;5030765;28;20068;-67
2023/01/19 03:34:43;;;;;;;0.10;0.10;;;4.50;99.90;;;;;;5031799;28;20095;-67
2023/01/19 03:37:12;;;;;;;0.17;0.17;;;4.60;99.90;;;;;;5030396;28;20053;-67
2023/01/19 03:39:37;;;;;;;0.75;0.75;;;4.60;99.90;;;;;;5030868;28;20049;-66
2023/01/19 03:42:07;;;;;;;0.10;0.10;;;4.60;99.90;;;;;;5030770;28;20034;-66
2023/01/19 03:44:36;;;;;;;0.13;0.13;;;4.60;99.90;;;;;;5028732;28;20079;-66
2023/01/19 03:47:05;;;;;;;1.10;1.10;;;4.60;99.90;;;;;;5027009;28;20539;-67
2023/01/19 03:49:31;;;;;;;0.10;0.10;;;4.70;99.90;;;;;;5031628;28;20089;-67
2023/01/19 03:51:58;;;;;;;0.10;0.10;;;4.70;99.90;;;;;;5030673;28;20060;-66
2023/01/19 03:54:24;;;;;;;0.10;0.10;;;4.70;99.90;;;;;;5028803;28;20492;-66
2023/01/19 03:56:51;;;;;;;0.10;0.10;;;4.70;99.90;;;;;;5030558;28;20099;-67
2023/01/19 03:59:18;;;;;;;0.10;0.10;;;4.80;99.90;;;;;;5031721;28;20179;-66
2023/01/19 04:01:44;;;;;;;0.10;0.10;;;4.80;99.90;;;;;;5030431;28;20488;-66
2023/01/19 04:04:11;;;;;;;2.72;0.82;;;4.80;99.90;;;;;;5030484;28;20519;-67
2023/01/19 04:06:37;;;;;;;0.10;0.10;;;4.80;99.90;;;;;;5027270;28;20124;-67
2023/01/19 04:09:03;;;;;;;0.10;0.10;;;4.80;99.90;;;;;;5031671;28;20508;-66
2023/01/19 04:11:29;;;;;;;0.10;0.10;;;4.80;99.90;;;;;;5027220;28;20503;-66
2023/01/19 04:13:54;;;;;;;0.10;0.10;;;4.80;99.90;;;;;;5023308;28;20048;-66
2023/01/19 04:16:20;;;;;;;0.10;0.10;;;4.80;99.90;;;;;;5031813;28;20052;-66
2023/01/19 04:18:46;;;;;;;0.10;0.10;;;4.80;99.90;;;;;;5010240;28;20207;-67
2023/01/19 04:21:11;;;;;;;0.10;0.10;;;4.70;99.90;;;;;;5031085;28;20033;-67
2023/01/19 04:23:37;;;;;;;0.10;0.10;;;4.80;99.90;;;;;;5029053;28;20099;-66
2023/01/19 04:26:05;;;;;;;0.10;0.10;;;4.80;99.90;;;;;;5010768;28;20426;-67
2023/01/19 04:28:32;;;;;;;0.50;0.50;;;4.80;99.90;;;;;;5030834;28;20096;-67
2023/01/19 04:30:58;;;;;;;0.10;0.10;;;4.70;99.90;;;;;;5030472;28;20049;-67
2023/01/19 04:33:24;;;;;;;0.20;0.20;;;4.70;99.90;;;;;;5029713;28;20053;-67
2023/01/19 04:35:51;;;;;;;0.10;0.10;;;4.70;99.90;;;;;;5028549;28;20057;-67
2023/01/19 04:38:18;;;;;;;0.00;0.00;;;4.60;99.90;;;;;;5027466;28;20064;-67
2023/01/19 04:40:44;;;;;;;0.10;0.10;;;4.60;99.90;;;;;;5010723;28;20073;-66
2023/01/19 04:43:09;;;;;;;0.20;0.20;;;4.60;99.90;;;;;;5027622;28;20088;-67
2023/01/19 04:45:35;;;;;;;0.10;0.10;;;4.60;99.90;;;;;;5030242;28;20068;-67
2023/01/19 04:48:03;;;;;;;0.10;0.10;;;4.60;99.90;;;;;;5030335;28;20045;-67
2023/01/19 04:50:29;;;;;;;0.10;0.10;;;4.60;99.90;;;;;;5029820;28;20057;-67
2023/01/19 04:52:55;;;;;;;0.10;0.10;;;4.50;99.90;;;;;;5030841;28;20049;-67
2023/01/19 04:55:21;;;;;;;0.10;0.10;;;4.50;99.90;;;;;;5030998;28;20045;-67
2023/01/19 04:57:46;;;;;;;0.10;0.10;;;4.50;99.90;;;;;;5010426;28;20128;-67
2023/01/19 05:00:12;;;;;;;0.10;0.10;;;4.50;99.90;;;;;;5030205;28;20380;-67
2023/01/19 05:02:38;;;;;;;0.10;0.10;;;4.50;99.90;;;;;;5029406;28;20083;-67
2023/01/19 05:05:04;;;;;;;0.10;0.10;;;4.50;99.90;;;;;;5028283;28;20427;-67
2023/01/19 05:07:29;;;;;;;0.10;0.10;;;4.40;99.90;;;;;;5025931;28;20046;-67
2023/01/19 05:09:55;;;;;;;0.10;0.10;;;4.40;99.90;;;;;;5028275;28;20053;-67
2023/01/19 05:12:21;;;;;;;0.10;0.10;;;4.40;99.90;;;;;;5029738;28;20034;-67
2023/01/19 05:14:47;;;;;;;0.10;0.10;;;4.30;99.90;;;;;;5009748;28;20083;-67
2023/01/19 05:17:12;;;;;;;0.10;0.10;;;4.30;99.90;;;;;;5028942;28;20049;-67
2023/01/19 05:19:38;;;;;;;0.47;0.47;;;4.30;99.90;;;;;;5012536;28;20053;-67
2023/01/19 05:22:04;;;;;;;0.10;0.10;;;4.20;99.90;;;;;;5028713;28;20479;-67
2023/01/19 05:24:30;;;;;;;0.10;0.10;;;4.20;99.90;;;;;;5011604;28;20048;-67
2023/01/19 05:26:56;;;;;;;0.10;0.10;;;4.20;99.90;;;;;;5028944;28;20053;-67
2023/01/19 05:29:22;;;;;;;0.10;0.10;;;4.30;99.90;;;;;;5030096;28;20374;-67
2023/01/19 05:31:48;;;;;;;0.10;0.10;;;4.30;99.90;;;;;;5028487;28;20495;-67
2023/01/19 05:34:14;;;;;;;0.10;0.10;;;4.30;99.90;;;;;;5030739;28;20041;-67
2023/01/19 05:36:40;;;;;;;0.10;0.10;;;4.30;99.90;;;;;;5028509;28;20037;-67
2023/01/19 05:39:06;;;;;;;0.10;0.10;;;4.30;99.90;;;;;;5030228;28;20148;-67
2023/01/19 05:41:31;;;;;;;1.35;1.17;;;4.30;99.90;;;;;;5012538;28;20128;-67
2023/01/19 05:43:57;;;;;;;0.10;0.10;;;4.30;99.90;;;;;;5026771;28;20056;-67
2023/01/19 05:46:23;;;;;;;0.10;0.10;;;4.40;99.90;;;;;;5023355;28;20048;-67
2023/01/19 05:48:49;;;;;;;0.10;0.10;;;4.40;99.90;;;;;;5030245;28;20510;-67
2023/01/19 05:51:14;;;;;;;0.10;0.10;;;4.40;99.90;;;;;;5029298;28;20065;-67
2023/01/19 05:53:40;;;;;;;0.10;0.10;;;4.40;99.90;;;;;;5029223;28;20042;-67
2023/01/19 05:56:07;;;;;;;0.10;0.10;;;4.40;99.90;;;;;;5035552;28;20037;-67
2023/01/19 05:58:34;;;;;;;0.10;0.10;;;4.50;99.90;;;;;;5016302;28;20061;-67
2023/01/19 06:01:04;;;;;;;0.57;0.52;;;4.50;99.90;;;;;;5031001;28;20042;-66
2023/01/19 06:03:30;;;;;;;0.10;0.10;;;4.50;99.90;;;;;;5034376;28;20057;-67
2023/01/19 06:05:57;;;;;;;0.80;0.80;;;4.60;99.90;;;;;;5035645;28;20041;-67
2023/01/19 06:08:23;;;;;;;0.10;0.10;;;4.60;99.90;;;;;;5034468;28;20085;-66
2023/01/19 06:10:48;;;;;;;0.10;0.10;;;4.60;99.90;;;;;;5017323;28;20096;-67
2023/01/19 06:13:14;;;;;;;0.10;0.10;;;4.60;99.90;;;;;;5016689;28;20489;-67
2023/01/19 06:15:41;;;;;;;0.10;0.10;;;4.60;99.90;;;;;;5031113;28;20048;-67
2023/01/19 06:18:07;;;;;;;0.10;0.10;;;4.60;99.90;;;;;;5035018;28;20057;-66
2023/01/19 06:20:32;;;;;;;0.10;0.10;;;4.50;99.90;;;;;;5036197;28;20365;-66
2023/01/19 06:22:58;;;;;;;1.00;1.00;;;4.50;99.90;;;;;;5035281;28;20052;-67
2023/01/19 06:25:24;;;;;;;0.10;0.10;;;4.50;99.90;;;;;;5016231;28;20515;-67
2023/01/19 06:27:50;;;;;;;8.68;1.23;;;4.50;99.90;;;;;;5017794;28;20053;-67
2023/01/19 06:30:16;;;;;;;0.10;0.10;;;4.50;99.90;;;;;;5035966;28;20084;-67
2023/01/19 06:32:42;;;;;;;0.10;0.10;;;4.40;99.90;;;;;;5034608;28;20037;-66
2023/01/19 06:35:08;;;;;;;0.15;0.15;;;4.40;99.90;;;;;;5017932;28;20057;-67
2023/01/19 06:37:35;;;;;;;0.10;0.10;;;4.40;99.90;;;;;;5035466;28;20125;-67
2023/01/19 06:40:00;;;;;;;36.53;1.52;;;4.30;99.90;;;;;;5035776;28;20045;-67
2023/01/19 06:42:26;;;;;;;0.15;0.15;;;4.30;99.90;;;;;;5013856;28;20038;-67
2023/01/19 06:44:52;;;;;;;0.10;0.10;;;4.30;99.90;;;;;;5034132;28;20045;-67
2023/01/19 06:47:17;;;;;;;0.20;0.20;;;4.30;99.90;;;;;;5033670;28;20045;-66
2023/01/19 06:49:43;;;;;;;0.17;0.17;;;4.30;99.90;;;;;;5015915;28;20482;-66
2023/01/19 06:52:10;;;;;;;0.10;0.10;;;4.40;99.90;;;;;;5034654;28;20120;-67
2023/01/19 06:54:36;;;;;;;0.10;0.10;;;4.40;99.90;;;;;;5033262;28;20053;-67
2023/01/19 06:57:02;;;;;;;0.10;0.10;;;4.40;99.90;;;;;;5035781;28;20115;-67
2023/01/19 06:59:28;;;;;;;1.17;1.17;;;4.40;99.90;;;;;;5030728;28;20049;-67
2023/01/19 07:01:55;;;;;;;0.10;0.10;;;4.40;99.90;;;;;;5032772;28;20045;-67
2023/01/19 07:04:21;;;;;;;0.10;0.10;;;4.40;99.90;;;;;;5036459;28;20091;-67
2023/01/19 07:06:46;;;;;;;0.63;0.63;;;4.40;99.90;;;;;;5031359;28;20481;-68
2023/01/19 07:09:12;;;;;;;0.20;0.20;;;4.50;99.90;;;;;;5014427;28;20045;-67
2023/01/19 07:11:38;;;;;;;0.10;0.10;;;4.50;99.90;;;;;;5032032;28;20057;-67
2023/01/19 07:14:04;;;;;;;0.15;0.15;;;4.50;99.90;;;;;;5013357;28;20046;-67
2023/01/19 07:16:30;;;;;;;0.10;0.10;;;4.50;99.90;;;;;;5031931;28;20052;-67
2023/01/19 07:18:56;;;;;;;0.10;0.10;;;4.50;99.90;;;;;;5031824;28;20042;-67
2023/01/19 07:21:21;;;;;;;0.10;0.10;;;4.50;99.90;;;;;;5012852;28;20168;-67
2023/01/19 07:23:48;;;;;;;0.10;0.10;;;4.40;99.90;;;;;;5031569;28;20431;-67
2023/01/19 07:26:17;;;;;;;0.40;0.40;;;4.40;99.90;;;;;;5032779;28;20041;-67
2023/01/19 07:28:42;;;;;;;0.10;0.10;;;4.40;99.90;;;;;;5028681;28;20050;-67
2023/01/19 07:31:09;;;;;;;0.10;0.10;;;4.40;99.90;;;;;;5029288;28;20114;-67
2023/01/19 07:33:34;;;;;;;0.10;0.10;;;4.30;99.90;;;;;;5013684;28;20041;-67
2023/01/19 07:36:00;;;;;;;19.30;1.08;;;4.40;99.90;;;;;;5013810;28;20046;-67
2023/01/19 07:38:26;;;;;;;0.10;0.10;;;4.40;99.90;;;;;;5013185;28;20603;-67
2023/01/19 07:41:01;;;;;;;0.10;0.10;;;4.40;99.90;;;;;;5014523;28;20053;-67
2023/01/19 07:43:27;;;;;;;0.10;0.10;;;4.40;99.90;;;;;;5030080;28;20071;-68
2023/01/19 07:46:00;;;;;;;0.10;0.10;;;4.40;99.90;;;;;;5032028;28;20136;-67
2023/01/19 07:48:27;;;;;;;0.10;0.10;;;4.40;99.90;;;;;;5031512;28;20392;-67
2023/01/19 07:50:52;;;;;;;0.73;0.73;;;4.40;99.90;;;;;;5030164;28;20493;-67
2023/01/19 07:53:18;;;;;;;0.10;0.10;;;4.30;99.90;;;;;;5031939;28;20053;-67
2023/01/19 07:55:44;;;;;;;0.40;0.40;;;4.30;99.90;;;;;;5028316;28;20052;-68
2023/01/19 07:58:10;;;;;;;0.10;0.10;;;4.30;99.90;;;;;;5030420;28;20045;-67
2023/01/19 08:00:37;;;;;;;0.10;0.10;;;4.30;99.90;;;;;;5030754;28;20088;-67
2023/01/19 08:03:03;;;;;;;6.63;1.45;;;4.30;99.90;;;;;;5029176;28;20400;-67
2023/01/19 08:05:30;;;;;;;0.10;0.10;;;4.30;99.90;;;;;;5031857;28;20496;-67
2023/01/19 08:07:56;;;;;;;0.10;0.10;;;4.20;99.90;;;;;;5030577;28;20076;-67
2023/01/19 08:10:25;;;;;;;0.10;0.10;;;4.20;99.90;;;;;;5014146;28;20049;-67
2023/01/19 08:12:54;;;;;;;0.10;0.10;;;4.10;99.90;;;;;;5030888;28;20068;-67
2023/01/19 08:15:22;;;;;;;0.10;0.10;;;4.20;99.90;;;;;;5030275;28;20120;-67
2023/01/19 08:17:55;;;;;;;0.10;0.10;;;4.20;99.90;;;;;;5012022;28;20045;-67
2023/01/19 08:20:22;;;;;;;0.10;0.10;;;4.10;99.90;;;;;;5029734;28;20046;-67
2023/01/19 08:22:48;;;;;;;0.10;0.10;;;4.10;99.90;;;;;;5013184;28;20049;-67
2023/01/19 08:25:14;;;;;;;0.95;0.57;;;4.10;99.90;;;;;;5030957;28;20052;-67
2023/01/19 08:27:39;;;;;;;0.10;0.10;;;4.10;99.90;;;;;;5022464;28;20049;-67
2023/01/19 08:30:06;;;;;;;0.10;0.10;;;4.20;99.90;;;;;;5029202;28;20071;-67
2023/01/19 08:32:31;;;;;;;0.10;0.10;;;4.10;99.90;;;;;;5011158;28;20081;-67
2023/01/19 08:34:57;;;;;;;0.10;0.10;;;4.10;99.90;;;;;;5031761;28;20497;-67
2023/01/19 08:37:23;;;;;;;0.10;0.10;;;4.10;99.90;;;;;;5012893;28;20041;-67
2023/01/19 08:39:49;;;;;;;0.10;0.10;;;4.10;99.90;;;;;;5030634;28;20041;-67
2023/01/19 08:42:15;;;;;;;0.10;0.10;;;4.10;99.90;;;;;;5031102;28;20041;-67
2023/01/19 08:44:41;;;;;;;0.10;0.10;;;4.10;99.90;;;;;;5012902;28;20087;-67
2023/01/19 08:47:07;;;;;;;4.95;2.28;;;4.10;99.90;;;;;;5028722;28;20045;-67
2023/01/19 08:49:34;;;;;;;0.10;0.10;;;4.10;99.90;;;;;;5030246;28;20076;-67
2023/01/19 08:52:01;;;;;;;0.10;0.10;;;4.10;99.90;;;;;;5013413;28;20049;-67
2023/01/19 08:54:27;;;;;;;0.10;0.10;;;4.10;99.90;;;;;;5011978;28;20062;-67
2023/01/19 08:56:53;;;;;;;0.10;0.10;;;4.10;99.90;;;;;;5030518;28;20041;-66
2023/01/19 08:59:18;;;;;;;0.10;0.10;;;4.10;99.90;;;;;;5031047;28;20045;-67
2023/01/19 09:01:44;;;;;;;0.10;0.10;;;4.20;99.90;;;;;;5028659;28;20041;-67
2023/01/19 09:04:09;;;;;;;0.10;0.10;;;4.30;99.90;;;;;;5029167;28;20051;-66
2023/01/19 09:06:35;;;;;;;0.10;0.10;;;4.30;99.90;;;;;;5012225;28;20057;-67
2023/01/19 09:09:00;;;;;;;0.10;0.10;;;4.30;99.90;;;;;;5009112;28;20470;-66
2023/01/19 09:11:26;;;;;;;0.10;0.10;;;4.30;99.90;;;;;;5030471;28;20045;-67
2023/01/19 09:13:51;;;;;;;0.20;0.20;;;4.40;99.90;;;;;;5011504;28;20052;-67
2023/01/19 09:16:17;;;;;;;0.10;0.10;;;4.50;99.90;;;;;;5013829;28;20041;-67
2023/01/19 09:18:44;;;;;;;0.10;0.10;;;4.60;99.90;;;;;;5028824;28;20136;-67
2023/01/19 09:21:10;;;;;;;0.10;0.10;;;4.60;99.90;;;;;;5030094;28;20124;-67
2023/01/19 09:23:36;;;;;;;0.25;0.25;;;4.60;99.90;;;;;;5016603;28;20160;-67
2023/01/19 09:26:03;;;;;;;0.10;0.10;;;4.60;99.90;;;;;;5029493;28;20120;-67
2023/01/19 09:28:29;;;;;;;0.10;0.10;;;4.60;99.90;;;;;;5029984;28;20052;-67
2023/01/19 09:30:55;;;;;;;0.10;0.10;;;4.50;99.90;;;;;;5029484;28;20041;-67
2023/01/19 09:33:21;;;;;;;0.10;0.10;;;4.50;99.90;;;;;;5028385;28;20085;-67
2023/01/19 09:35:48;;;;;;;0.10;0.10;;;4.60;99.90;;;;;;5029494;28;20123;-67
2023/01/19 09:38:15;;;;;;;0.10;0.10;;;4.60;99.90;;;;;;5030789;28;20045;-67
2023/01/19 09:40:42;;;;;;;0.10;0.10;;;4.60;99.90;;;;;;5027462;28;20116;-67
2023/01/19 09:43:20;;;;;;;0.20;0.20;;;4.70;99.90;;;;;;5023793;28;20091;-67
2023/01/19 09:45:59;;;;;;;0.10;0.10;;;4.70;99.90;;;;;;5029410;28;20050;-67
2023/01/19 09:48:27;;;;;;;0.10;0.10;;;4.80;99.90;;;;;;5029636;28;20167;-67
2023/01/19 09:50:57;;;;;;;0.10;0.10;;;4.80;99.90;;;;;;5029910;28;20061;-67
2023/01/19 09:53:39;;;;;;;0.10;0.10;;;4.80;99.90;;;;;;5011633;28;20053;-67
2023/01/19 09:56:11;;;;;;;0.10;0.10;;;4.90;99.90;;;;;;5009166;28;20540;-67
2023/01/19 09:58:36;;;;;;;0.10;0.10;;;4.90;99.90;;;;;;5023790;28;20041;-67
2023/01/19 10:01:22;;;;;;;0.10;0.10;;;4.90;99.90;;;;;;5029456;28;20040;-67
2023/01/19 10:03:54;;;;;;;0.10;0.10;;;4.90;99.90;;;;;;5028379;28;20087;-67
2023/01/19 10:06:21;;;;;;;0.10;0.10;;;5.00;99.90;;;;;;5029784;28;20042;-67
2023/01/19 10:09:10;;;;;;;0.10;0.10;;;5.10;99.90;;;;;;5027934;28;20480;-67
2023/01/19 10:11:44;;;;;;;0.10;0.10;;;5.10;99.90;;;;;;5011422;28;20045;-67
2023/01/19 10:14:23;;;;;;;0.10;0.10;;;5.20;99.90;;;;;;5028155;28;20500;-67
2023/01/19 10:17:16;;;;;;;0.10;0.10;;;5.20;99.90;;;;;;5029167;28;20049;-67
2023/01/19 10:19:50;;;;;;;0.10;0.10;;;5.20;99.90;;;;;;5030023;28;20935;-67
2023/01/19 10:22:25;;;;;;;0.10;0.10;;;5.30;99.90;;;;;;5026681;28;20084;-67
2023/01/19 10:24:55;;;;;;;0.10;0.10;;;5.40;99.90;;;;;;5009858;28;20489;-67
2023/01/19 10:27:28;;;;;;;0.10;0.10;;;5.50;99.90;;;;;;5029407;28;20042;-67
2023/01/19 10:29:53;;;;;;;0.10;0.10;;;5.60;99.90;;;;;;5011962;28;20041;-67
2023/01/19 10:32:21;;;;;;;0.10;0.10;;;5.80;99.90;;;;;;5026917;28;20212;-67
2023/01/19 10:34:48;;;;;;;0.10;0.10;;;6.00;99.90;;;;;;5028246;28;20136;-67
2023/01/19 10:37:16;;;;;;;0.65;0.38;;;6.10;99.90;;;;;;5020516;28;20033;-67
2023/01/19 10:39:44;;;;;;;0.10;0.10;;;6.10;99.90;;;;;;5027680;28;20543;-67
2023/01/19 10:42:14;;;;;;;0.10;0.10;;;6.40;99.90;;;;;;5026574;28;20037;-67
2023/01/19 10:44:40;;;;;;;0.10;0.10;;;6.40;99.90;;;;;;5032808;28;20049;-67
2023/01/19 10:47:15;;;;;;;0.10;0.10;;;6.40;99.90;;;;;;5029078;28;20128;-67
2023/01/19 10:49:41;;;;;;;0.32;0.32;;;6.50;99.90;;;;;;5029718;28;20077;-67
2023/01/19 10:52:18;;;;;;;0.10;0.10;;;6.50;99.90;;;;;;5031379;28;20085;-66
2023/01/19 10:54:47;;;;;;;0.10;0.10;;;6.60;99.90;;;;;;5033014;28;20089;-67
2023/01/19 10:57:25;;;;;;;0.00;0.00;;;6.60;99.90;;;;;;5030315;28;20049;-66
2023/01/19 10:59:51;;;;;;;0.10;0.10;;;6.70;99.90;;;;;;5031384;28;20133;-66
2023/01/19 11:02:19;;;;;;;0.10;0.10;;;6.70;99.90;;;;;;5031613;28;20516;-66
2023/01/19 11:04:51;;;;;;;0.10;0.10;;;6.70;99.90;;;;;;5011600;28;20056;-66
2023/01/19 11:07:26;;;;;;;0.00;0.00;;;6.70;99.90;;;;;;5035321;28;20060;-66
2023/01/19 11:10:11;;;;;;;0.10;0.10;;;6.70;99.90;;;;;;5012514;28;20554;-66
2023/01/19 11:12:53;;;;;;;0.00;0.00;;;6.70;99.90;;;;;;4989426;28;20050;-66
2023/01/19 11:15:27;;;;;;;0.08;0.08;;;6.70;99.90;;;;;;5032659;28;20046;-66
2023/01/19 11:17:52;;;;;;;0.10;0.10;;;6.70;99.90;;;;;;5029992;28;20035;-66
2023/01/19 11:20:25;;;;;;;0.10;0.10;;;6.80;99.90;;;;;;5029933;28;20041;-66
2023/01/19 11:23:15;;;;;;;0.10;0.10;;;6.80;99.90;;;;;;5032609;28;20045;-66
2023/01/19 11:25:46;;;;;;;0.10;0.10;;;6.90;99.90;;;;;;5009603;28;20115;-66
2023/01/19 11:28:25;;;;;;;0.00;0.00;;;7.00;99.90;;;;;;5009522;28;20069;-65
2023/01/19 11:31:17;;;;;;;0.10;0.10;;;7.10;99.90;;;;;;5028011;28;20041;-66
2023/01/19 11:33:45;;;;;;;0.17;0.17;;;7.10;99.90;;;;;;5030702;28;20096;-66
2023/01/19 11:36:27;;;;;;;0.10;0.10;;;7.00;99.90;;;;;;5025957;28;20046;-66
2023/01/19 11:38:55;;;;;;;0.10;0.10;;;7.00;99.90;;;;;;5028623;28;20049;-66
2023/01/19 11:41:27;;;;;;;0.17;0.17;;;6.90;99.90;;;;;;5029190;28;20496;-66
2023/01/19 11:43:55;;;;;;;0.10;0.10;;;6.80;99.90;;;;;;5027260;28;20038;-66
2023/01/19 11:46:25;;;;;;;0.10;0.10;;;6.80;99.90;;;;;;5005808;28;20045;-66
2023/01/19 11:49:12;;;;;;;0.10;0.10;;;6.70;99.90;;;;;;5024036;28;20504;-66
2023/01/19 11:51:57;;;;;;;0.10;0.10;;;6.50;99.90;;;;;;5030373;28;20045;-66
2023/01/19 11:54:28;;;;;;;0.10;0.10;;;6.40;99.90;;;;;;5024903;28;20053;-66
2023/01/19 11:56:57;;;;;;;0.10;0.10;;;6.30;99.90;;;;;;5028972;28;20036;-66
2023/01/19 11:59:26;;;;;;;0.75;0.73;;;6.20;99.90;;;;;;5030509;28;20056;-66
2023/01/19 12:01:57;;;;;;;0.10;0.10;;;6.20;99.90;;;;;;5029914;28;20046;-66
2023/01/19 12:04:36;;;;;;;0.10;0.10;;;6.10;99.90;;;;;;5029503;28;20087;-66
2023/01/19 12:07:09;;;;;;;0.10;0.10;;;6.10;99.90;;;;;;5030885;28;20041;-66
2023/01/19 12:09:41;;;;;;;0.10;0.10;;;6.00;99.90;;;;;;5010772;28;20103;-66
2023/01/19 12:12:29;;;;;;;0.10;0.10;;;6.00;99.90;;;;;;5030261;28;20046;-66
2023/01/19 12:15:37;;;;;;;0.10;0.10;;;5.90;99.90;;;;;;5030860;28;20583;-66
2023/01/19 12:18:05;;;;;;;0.10;0.10;;;5.90;99.90;;;;;;5030227;28;20045;-66
2023/01/19 12:20:38;;;;;;;0.10;0.10;;;5.90;99.90;;;;;;5031542;28;20147;-66
2023/01/19 12:23:26;;;;;;;4.75;2.40;;;5.90;99.90;;;;;;5028300;28;20493;-66
2023/01/19 12:26:17;;;;;;;0.35;0.35;;;5.90;99.90;;;;;;5031062;28;20038;-66
2023/01/19 12:28:46;;;;;;;0.10;0.10;;;5.90;99.90;;;;;;5010671;28;20862;-66
2023/01/19 12:31:18;;;;;;;0.10;0.10;;;5.90;99.90;;;;;;5023560;28;20091;-66
2023/01/19 12:33:44;;;;;;;0.10;0.10;;;5.90;99.90;;;;;;5011410;28;20057;-66
2023/01/19 12:36:15;;;;;;;0.10;0.10;;;6.00;99.90;;;;;;5030715;28;20056;-66
2023/01/19 12:39:09;;;;;;;0.10;0.10;;;6.40;99.90;;;;;;5031044;28;20045;-66
2023/01/19 12:41:35;;;;;;;0.20;0.20;;;6.40;99.90;;;;;;5029651;28;20049;-66
2023/01/19 12:44:10;;;;;;;0.15;0.15;;;6.40;99.90;;;;;;5029641;28;20051;-66
2023/01/19 12:46:40;;;;;;;0.65;0.35;;;6.40;99.90;;;;;;5030472;28;20049;-66
2023/01/19 12:49:25;;;;;;;0.10;0.10;;;6.40;99.90;;;;;;5012954;28;20132;-66
2023/01/19 12:52:12;;;;;;;0.10;0.10;;;6.40;99.90;;;;;;5030857;28;20049;-66
2023/01/19 12:54:49;;;;;;;0.10;0.10;;;6.30;99.90;;;;;;5030960;28;20053;-66
2023/01/19 12:57:30;;;;;;;0.10;0.10;;;6.20;99.90;;;;;;5030965;28;20478;-66
2023/01/19 12:59:57;;;;;;;0.30;0.30;;;6.10;99.90;;;;;;5026032;28;20124;-66
2023/01/19 13:02:23;;;;;;;0.10;0.10;;;6.10;99.90;;;;;;5030584;28;20041;-66
2023/01/19 13:05:19;;;;;;;0.00;0.00;;;6.10;99.90;;;;;;5028710;28;20500;-66
2023/01/19 13:08:00;;;;;;;0.10;0.10;;;6.60;99.90;;;;;;5013098;28;20045;-66
2023/01/19 13:11:09;;;;;;;0.10;0.10;;;7.10;99.90;;;;;;5030360;28;20053;-66
2023/01/19 13:13:38;;;;;;;0.10;0.10;;;7.40;99.90;;;;;;5026528;28;20437;-66
2023/01/19 13:16:23;;;;;;;0.10;0.10;;;7.70;99.90;;;;;;5027181;28;20041;-66
2023/01/19 13:19:04;;;;;;;0.10;0.10;;;8.00;99.90;;;;;;5027865;28;20983;-66
2023/01/19 13:21:36;;;;;;;0.10;0.10;;;8.30;99.90;;;;;;5027675;28;20045;-66
2023/01/19 13:24:14;;;;;;;1.85;1.75;;;8.50;99.90;;;;;;5020030;28;20386;-66